Time;durP1;ratioP1;P1;durP2;ratioP2;P2;SDS_P1;SDS_P2;PMS_P1;PMS_P2;Temp;Humidity;BMP_temperature;BMP_pressure;BME280_temperature;BME280_humidity;BME280_pressure;Samples;Min_cycle;Max_cycle;Signal;HPM_P1;HPM_P2
2022/04/10 00:01:01;;;;;;;;;;;;;;;1.92;100.00;100972.16;5067725;28;19976;-77
2022/04/10 00:03:39;;;;;;;;;;;;;;;1.91;100.00;100977.22;5079230;28;19973;-77
2022/04/10 00:06:04;;;;;;;;;;;;;;;1.86;100.00;100966.50;5096127;28;19937;-78
2022/04/10 00:08:30;;;;;;;;;;;;;;;1.80;100.00;100976.44;5086003;28;20431;-78
2022/04/10 00:10:55;;;;;;;;;;;;;;;1.84;100.00;100956.81;5058049;28;19924;-77
2022/04/10 00:13:20;;;;;;;;;;;;;;;1.86;100.00;100957.81;5093705;28;19923;-77
2022/04/10 00:15:45;;;;;;;;;;;;;;;1.89;100.00;100958.03;5078482;28;20134;-77
2022/04/10 00:18:11;;;;;;;;;;;;;;;1.91;100.00;100951.25;5090552;28;19926;-77
2022/04/10 00:20:36;;;;;;;;;;;;;;;1.87;100.00;100941.47;5095284;28;20332;-77
2022/04/10 00:23:04;;;;;;;;;;;;;;;1.87;100.00;100933.66;5078401;28;19927;-77
2022/04/10 00:25:29;;;;;;;;;;;;;;;1.82;100.00;100933.34;5081431;28;19916;-77
2022/04/10 00:27:54;;;;;;;;;;;;;;;1.82;100.00;100922.03;5085765;28;19941;-78
2022/04/10 00:30:20;;;;;;;;;;;;;;;1.81;100.00;100922.84;5091867;28;20299;-76
2022/04/10 00:32:47;;;;;;;;;;;;;;;1.84;100.00;100904.88;5059083;28;19972;-78
2022/04/10 00:35:12;;;;;;;;;;;;;;;1.85;100.00;100898.88;5058890;28;19918;-77
2022/04/10 00:37:38;;;;;;;;;;;;;;;1.88;100.00;100888.72;5058834;28;20007;-77
2022/04/10 00:40:04;;;;;;;;;;;;;;;1.89;100.00;100873.25;5059339;28;19917;-78
2022/04/10 00:42:32;;;;;;;;;;;;;;;1.89;100.00;100870.66;5077158;28;20284;-77
2022/04/10 00:45:00;;;;;;;;;;;;;;;1.93;100.00;100869.19;5068377;28;19920;-77
2022/04/10 00:47:26;;;;;;;;;;;;;;;1.86;100.00;100867.81;5107263;28;19916;-77
2022/04/10 00:49:52;;;;;;;;;;;;;;;1.85;100.00;100865.13;5086905;28;19972;-76
2022/04/10 00:52:18;;;;;;;;;;;;;;;1.79;100.00;100866.50;5090708;28;19928;-77
2022/04/10 00:54:49;;;;;;;;;;;;;;;1.73;100.00;100871.25;5089820;28;19942;-77
2022/04/10 00:57:16;;;;;;;;;;;;;;;1.70;100.00;100862.34;5099116;28;19919;-78
2022/04/10 00:59:41;;;;;;;;;;;;;;;1.65;100.00;100859.44;5099360;28;20021;-77
2022/04/10 01:02:07;;;;;;;;;;;;;;;1.60;100.00;100847.78;5070804;28;19967;-77
2022/04/10 01:04:36;;;;;;;;;;;;;;;1.56;100.00;100844.09;5078651;28;20058;-77
2022/04/10 01:07:02;;;;;;;;;;;;;;;1.53;100.00;100850.75;5078983;28;20425;-77
2022/04/10 01:09:27;;;;;;;;;;;;;;;1.47;100.00;100840.81;5078305;28;19920;-77
2022/04/10 01:11:56;;;;;;;;;;;;;;;1.41;100.00;100843.91;5096517;28;20344;-77
2022/04/10 01:14:23;;;;;;;;;;;;;;;1.36;100.00;100831.38;5096756;28;19915;-77
2022/04/10 01:16:49;;;;;;;;;;;;;;;1.32;100.00;100813.78;5087007;28;20280;-77
2022/04/10 01:19:16;;;;;;;;;;;;;;;1.33;100.00;100810.41;5066357;28;19973;-77
2022/04/10 01:21:46;;;;;;;;;;;;;;;1.29;100.00;100800.56;5099052;28;20383;-76
2022/04/10 01:24:13;;;;;;;;;;;;;;;1.24;100.00;100785.59;5094070;28;19974;-77
2022/04/10 01:26:40;;;;;;;;;;;;;;;1.19;100.00;100780.84;5078620;28;20383;-77
2022/04/10 01:29:06;;;;;;;;;;;;;;;1.16;100.00;100771.16;5096234;28;19920;-77
2022/04/10 01:31:33;;;;;;;;;;;;;;;1.16;100.00;100765.97;5098595;28;19916;-77
2022/04/10 01:34:01;;;;;;;;;;;;;;;1.16;100.00;100763.38;5078739;28;19924;-77
2022/04/10 01:36:27;;;;;;;;;;;;;;;1.14;100.00;100753.69;5092001;28;19919;-77
2022/04/10 01:38:54;;;;;;;;;;;;;;;1.14;100.00;100744.22;5098375;28;20443;-78
2022/04/10 01:41:20;;;;;;;;;;;;;;;1.13;100.00;100736.31;5099126;28;19964;-78
2022/04/10 01:43:48;;;;;;;;;;;;;;;1.13;100.00;100728.53;5116163;28;19927;-78
2022/04/10 01:46:13;;;;;;;;;;;;;;;1.07;100.00;100724.72;5098437;28;19977;-78
2022/04/10 01:48:39;;;;;;;;;;;;;;;1.07;100.00;100722.13;5097170;28;19943;-78
2022/04/10 01:51:04;;;;;;;;;;;;;;;1.08;100.00;100725.63;5076641;28;20029;-78
2022/04/10 01:53:30;;;;;;;;;;;;;;;1.04;100.00;100719.31;5095428;28;19916;-77
2022/04/10 01:55:55;;;;;;;;;;;;;;;1.00;100.00;100714.69;5093592;28;19924;-77
2022/04/10 01:58:20;;;;;;;;;;;;;;;0.99;100.00;100702.50;5090177;28;19922;-77
2022/04/10 02:00:47;;;;;;;;;;;;;;;0.99;100.00;100710.28;5085756;28;20403;-77
2022/04/10 02:03:14;;;;;;;;;;;;;;;0.97;100.00;100706.69;5074753;28;19920;-77
2022/04/10 02:05:39;;;;;;;;;;;;;;;0.98;100.00;100703.31;5097741;28;19916;-78
2022/04/10 02:08:05;;;;;;;;;;;;;;;0.97;100.00;100705.81;5080839;28;19924;-77
2022/04/10 02:10:30;;;;;;;;;;;;;;;0.96;100.00;100696.22;5085214;28;19916;-77
2022/04/10 02:12:57;;;;;;;;;;;;;;;0.96;100.00;100701.41;5093341;28;19916;-76
2022/04/10 02:15:23;;;;;;;;;;;;;;;0.94;100.00;100693.50;5095601;28;19962;-76
2022/04/10 02:17:49;;;;;;;;;;;;;;;0.91;100.00;100701.06;5077583;28;20333;-77
2022/04/10 02:20:14;;;;;;;;;;;;;;;0.89;100.00;100693.19;5077560;28;19974;-76
2022/04/10 02:22:40;;;;;;;;;;;;;;;0.92;100.00;100696.78;5078168;28;20302;-77
2022/04/10 02:25:06;;;;;;;;;;;;;;;0.92;100.00;100692.50;5091338;28;19924;-76
2022/04/10 02:27:31;;;;;;;;;;;;;;;0.94;100.00;100698.69;5079870;28;19927;-76
2022/04/10 02:29:57;;;;;;;;;;;;;;;0.95;100.00;100699.59;5082250;28;20349;-77
2022/04/10 02:32:23;;;;;;;;;;;;;;;0.93;100.00;100699.47;5078915;28;20024;-76
2022/04/10 02:34:49;;;;;;;;;;;;;;;0.88;100.00;100699.13;5086789;28;19923;-77
2022/04/10 02:37:14;;;;;;;;;;;;;;;0.88;100.00;100703.44;5095555;28;20413;-77
2022/04/10 02:39:40;;;;;;;;;;;;;;;0.87;100.00;100699.03;5096782;28;19920;-77
2022/04/10 02:42:05;;;;;;;;;;;;;;;0.89;100.00;100693.19;5097109;28;19919;-77
2022/04/10 02:44:31;;;;;;;;;;;;;;;0.91;100.00;100697.59;5080031;28;19926;-77
2022/04/10 02:46:56;;;;;;;;;;;;;;;0.91;100.00;100703.66;5096607;28;20011;-76
2022/04/10 02:49:21;;;;;;;;;;;;;;;0.94;100.00;100709.06;5093100;28;20406;-77
2022/04/10 02:51:49;;;;;;;;;;;;;;;0.95;100.00;100704.78;5082584;28;19924;-75
2022/04/10 02:54:15;;;;;;;;;;;;;;;0.94;100.00;100696.09;5074463;28;19916;-77
2022/04/10 02:56:40;;;;;;;;;;;;;;;0.97;100.00;100698.03;5073122;28;19917;-77
2022/04/10 02:59:06;;;;;;;;;;;;;;;0.98;100.00;100697.22;5073302;28;20400;-76
2022/04/10 03:01:31;;;;;;;;;;;;;;;0.96;100.00;100696.22;5081418;28;19971;-76
2022/04/10 03:03:58;;;;;;;;;;;;;;;0.93;100.00;100685.63;5062728;28;19920;-77
2022/04/10 03:06:23;;;;;;;;;;;;;;;0.93;100.00;100688.22;5088274;28;19923;-77
2022/04/10 03:08:48;;;;;;;;;;;;;;;0.92;100.00;100692.50;5093475;28;19916;-77
2022/04/10 03:11:14;;;;;;;;;;;;;;;0.90;100.00;100694.06;5092809;28;19916;-76
2022/04/10 03:13:43;;;;;;;;;;;;;;;0.88;100.00;100693.97;5090212;28;19928;-77
2022/04/10 03:16:10;;;;;;;;;;;;;;;0.84;100.00;100693.63;5089180;28;19920;-77
2022/04/10 03:18:36;;;;;;;;;;;;;;;0.84;100.00;100698.81;5072945;28;19989;-75
2022/04/10 03:21:02;;;;;;;;;;;;;;;0.82;100.00;100690.03;5092413;28;19955;-77
2022/04/10 03:23:28;;;;;;;;;;;;;;;0.82;100.00;100696.09;5087265;28;19935;-77
2022/04/10 03:25:54;;;;;;;;;;;;;;;0.81;100.00;100691.72;5073238;28;20361;-77
2022/04/10 03:28:19;;;;;;;;;;;;;;;0.82;100.00;100693.50;5073037;28;19922;-77
2022/04/10 03:30:45;;;;;;;;;;;;;;;0.81;100.00;100688.22;5070620;28;19924;-78
2022/04/10 03:33:10;;;;;;;;;;;;;;;0.75;100.00;100701.66;5088034;28;19920;-76
2022/04/10 03:35:35;;;;;;;;;;;;;;;0.75;100.00;100698.19;5087614;28;20006;-76
2022/04/10 03:38:01;;;;;;;;;;;;;;;0.72;100.00;100698.84;5091751;28;19920;-77
2022/04/10 03:40:26;;;;;;;;;;;;;;;0.65;100.00;100694.91;5092982;28;19917;-77
2022/04/10 03:42:52;;;;;;;;;;;;;;;0.63;100.00;100682.63;5075191;28;20394;-77
2022/04/10 03:45:17;;;;;;;;;;;;;;;0.59;100.00;100681.50;5089256;28;19939;-78
2022/04/10 03:47:42;;;;;;;;;;;;;;;0.59;100.00;100668.53;5079691;28;19920;-77
2022/04/10 03:50:07;;;;;;;;;;;;;;;0.57;100.00;100662.31;5091129;28;20295;-77
2022/04/10 03:52:33;;;;;;;;;;;;;;;0.58;100.00;100658.06;5093232;28;19916;-77
2022/04/10 03:55:01;;;;;;;;;;;;;;;0.53;100.00;100655.16;5090195;28;19920;-77
2022/04/10 03:57:26;;;;;;;;;;;;;;;0.56;100.00;100647.59;5087797;28;20358;-77
2022/04/10 03:59:52;;;;;;;;;;;;;;;0.53;100.00;100649.97;5087824;28;19920;-77
2022/04/10 04:02:17;;;;;;;;;;;;;;;0.53;100.00;100647.38;5088349;28;19981;-77
2022/04/10 04:04:44;;;;;;;;;;;;;;;0.54;100.00;100649.16;5077751;28;19920;-76
2022/04/10 04:07:10;;;;;;;;;;;;;;;0.50;100.00;100650.63;5089088;28;19990;-77
2022/04/10 04:09:35;;;;;;;;;;;;;;;0.49;100.00;100642.75;5079737;28;20372;-77
2022/04/10 04:12:00;;;;;;;;;;;;;;;0.48;100.00;100638.34;5081682;28;19942;-77
2022/04/10 04:14:27;;;;;;;;;;;;;;;0.47;100.00;100634.84;5085542;28;20414;-78
2022/04/10 04:16:52;;;;;;;;;;;;;;;0.43;100.00;100625.06;5091138;28;19920;-77
2022/04/10 04:19:17;;;;;;;;;;;;;;;0.42;100.00;100625.88;5091518;28;20399;-77
2022/04/10 04:21:43;;;;;;;;;;;;;;;0.39;100.00;100620.47;5093196;28;19916;-77
2022/04/10 04:24:10;;;;;;;;;;;;;;;0.38;100.00;100623.81;5087737;28;20276;-77
2022/04/10 04:26:35;;;;;;;;;;;;;;;0.41;100.00;100617.97;5090662;28;19924;-77
2022/04/10 04:29:01;;;;;;;;;;;;;;;0.39;100.00;100612.69;5077132;28;19926;-77
2022/04/10 04:31:26;;;;;;;;;;;;;;;0.37;100.00;100609.06;5086815;28;19928;-77
2022/04/10 04:33:51;;;;;;;;;;;;;;;0.33;100.00;100601.88;5073947;28;20384;-77
2022/04/10 04:36:16;;;;;;;;;;;;;;;0.33;100.00;100600.19;5091735;28;19912;-77
2022/04/10 04:38:42;;;;;;;;;;;;;;;0.32;100.00;100598.38;5073025;28;19924;-77
2022/04/10 04:41:10;;;;;;;;;;;;;;;0.30;100.00;100599.94;5071372;28;20432;-77
2022/04/10 04:43:35;;;;;;;;;;;;;;;0.25;100.00;100596.13;5071582;28;20019;-78
2022/04/10 04:46:01;;;;;;;;;;;;;;;0.25;100.00;100588.38;5072632;28;19979;-78
2022/04/10 04:48:26;;;;;;;;;;;;;;;0.22;100.00;100588.16;5071860;28;19927;-77
2022/04/10 04:50:51;;;;;;;;;;;;;;;0.22;100.00;100593.31;5076712;28;20380;-77
2022/04/10 04:53:19;;;;;;;;;;;;;;;0.23;100.00;100583.84;5057399;28;20410;-77
2022/04/10 04:55:44;;;;;;;;;;;;;;;0.25;100.00;100588.38;5082678;28;19942;-77
2022/04/10 04:58:10;;;;;;;;;;;;;;;0.23;100.00;100584.75;5073411;28;20014;-77
2022/04/10 05:00:35;;;;;;;;;;;;;;;0.25;100.00;100580.59;5071901;28;19999;-77
2022/04/10 05:03:00;;;;;;;;;;;;;;;0.28;100.00;100575.66;5071186;28;19926;-77
2022/04/10 05:05:25;;;;;;;;;;;;;;;0.33;100.00;100563.91;5073036;28;20352;-77
2022/04/10 05:07:52;;;;;;;;;;;;;;;0.39;100.00;100560.88;5070879;28;19912;-78
2022/04/10 05:10:17;;;;;;;;;;;;;;;0.43;100.00;100554.22;5074339;28;19920;-77
2022/04/10 05:12:43;;;;;;;;;;;;;;;0.47;100.00;100551.94;5075662;28;19951;-77
2022/04/10 05:15:08;;;;;;;;;;;;;;;0.56;100.00;100545.63;5083168;28;19916;-77
2022/04/10 05:17:34;;;;;;;;;;;;;;;1.04;100.00;100529.09;5095619;28;19924;-76
2022/04/10 05:20:00;;;;;;;;;;;;;;;1.92;100.00;100498.63;5094806;28;19923;-78
2022/04/10 05:22:25;;;;;;;;;;;;;;;2.88;100.00;100454.38;5083748;28;20350;-77
2022/04/10 05:24:52;;;;;;;;;;;;;;;3.64;100.00;100417.16;5093613;28;20354;-78
2022/04/10 05:27:18;;;;;;;;;;;;;;;4.57;100.00;100394.41;5093789;28;20011;-78
2022/04/10 05:29:43;;;;;;;;;;;;;;;5.30;100.00;100382.41;5077416;28;19936;-77
2022/04/10 05:32:10;;;;;;;;;;;;;;;5.96;100.00;100403.03;5085693;28;19924;-77
2022/04/10 05:34:35;;;;;;;;;;;;;;;6.60;100.00;100470.53;5091204;28;19920;-77
2022/04/10 05:37:01;;;;;;;;;;;;;;;7.21;100.00;100574.53;5080075;28;20010;-77
2022/04/10 05:39:26;;;;;;;;;;;;;;;7.64;100.00;100688.19;5083532;28;20386;-77
2022/04/10 05:41:51;;;;;;;;;;;;;;;8.00;100.00;100808.66;5095532;28;19923;-77
2022/04/10 05:44:16;;;;;;;;;;;;;;;8.69;100.00;100914.13;5094372;28;20060;-77
2022/04/10 05:46:42;;;;;;;;;;;;;;;9.25;100.00;101011.13;5090929;28;19973;-78
2022/04/10 05:49:07;;;;;;;;;;;;;;;9.93;100.00;101135.91;5074071;28;19920;-77
2022/04/10 05:51:32;;;;;;;;;;;;;;;9.92;100.00;101256.84;5073999;28;19916;-77
2022/04/10 05:53:59;;;;;;;;;;;;;;;10.38;100.00;101330.00;5084564;28;19940;-78
2022/04/10 05:56:24;;;;;;;;;;;;;;;10.73;100.00;101375.41;5074251;28;19939;-77
2022/04/10 05:58:49;;;;;;;;;;;;;;;10.94;100.00;101410.59;5093417;28;20322;-77
2022/04/10 06:01:15;;;;;;;;;;;;;;;11.50;100.00;101432.28;5091031;28;20015;-78
2022/04/10 06:03:43;;;;;;;;;;;;;;;12.07;100.00;101518.16;5084370;28;20440;-78
2022/04/10 06:06:08;;;;;;;;;;;;;;;12.43;100.00;101594.44;5092481;28;19959;-78
2022/04/10 06:08:34;;;;;;;;;;;;;;;12.51;100.00;101828.13;5088057;28;19927;-78
2022/04/10 06:10:59;;;;;;;;;;;;;;;13.04;100.00;101937.00;5081551;28;19917;-78
2022/04/10 06:13:25;;;;;;;;;;;;;;;13.70;100.00;101959.16;5074595;28;20448;-78
2022/04/10 06:15:52;;;;;;;;;;;;;;;12.91;100.00;101969.00;5094437;28;19947;-77
2022/04/10 06:18:17;;;;;;;;;;;;;;;13.39;100.00;101958.81;5078573;28;19917;-78
2022/04/10 06:20:42;;;;;;;;;;;;;;;13.89;100.00;101969.66;5074792;28;20422;-78
2022/04/10 06:23:08;;;;;;;;;;;;;;;14.03;100.00;101985.19;5074946;28;19925;-76
2022/04/10 06:25:33;;;;;;;;;;;;;;;14.05;100.00;101984.41;5075159;28;19939;-77
2022/04/10 06:27:58;;;;;;;;;;;;;;;14.33;100.00;101986.41;5077850;28;19916;-77
2022/04/10 06:30:24;;;;;;;;;;;;;;;13.58;100.00;101992.22;5092424;28;19920;-76
2022/04/10 06:32:53;;;;;;;;;;;;;;;14.17;100.00;101994.59;5094884;28;19922;-78
2022/04/10 06:35:19;;;;;;;;;;;;;;;14.58;100.00;101999.69;5091915;28;20019;-77
2022/04/10 06:37:44;;;;;;;;;;;;;;;14.00;100.00;101999.22;5074976;28;19944;-77
2022/04/10 06:40:10;;;;;;;;;;;;;;;13.59;100.00;101994.00;5073297;28;19920;-76
2022/04/10 06:42:35;;;;;;;;;;;;;;;13.79;100.00;101980.72;5082158;28;19924;-76
2022/04/10 06:45:03;;;;;;;;;;;;;;;14.59;100.00;101993.53;5094391;28;20390;-78
2022/04/10 06:47:31;;;;;;;;;;;;;;;14.49;100.00;101994.94;5076900;28;20280;-75
2022/04/10 06:49:57;;;;;;;;;;;;;;;13.93;100.00;101995.41;5072545;28;20421;-78
2022/04/10 06:52:22;;;;;;;;;;;;;;;13.29;100.00;101989.19;5072862;28;19921;-78
2022/04/10 06:54:47;;;;;;;;;;;;;;;12.95;100.00;101985.94;5075026;28;19921;-77
2022/04/10 06:57:13;;;;;;;;;;;;;;;11.80;100.00;101979.69;5056045;28;20353;-77
2022/04/10 06:59:38;;;;;;;;;;;;;;;11.30;100.00;101971.06;5072344;28;19917;-78
2022/04/10 07:02:03;;;;;;;;;;;;;;;10.04;100.00;101926.66;5073895;28;20005;-78
2022/04/10 07:04:29;;;;;;;;;;;;;;;9.82;100.00;101878.91;5076246;28;20288;-77
2022/04/10 07:06:55;;;;;;;;;;;;;;;9.78;100.00;101867.31;5070039;28;20050;-77
2022/04/10 07:09:20;;;;;;;;;;;;;;;9.44;100.00;101865.44;5072831;28;19959;-78
2022/04/10 07:11:45;;;;;;;;;;;;;;;9.75;100.00;101824.19;5076501;28;19927;-78
2022/04/10 07:14:11;;;;;;;;;;;;;;;9.40;100.00;101802.06;5080794;28;19925;-78
2022/04/10 07:16:37;;;;;;;;;;;;;;;9.19;100.00;101776.41;5065721;28;20007;-78
2022/04/10 07:19:02;;;;;;;;;;;;;;;9.22;100.00;101746.78;5072331;28;19956;-78
2022/04/10 07:24:12;;;;;;;;;;;;;;;8.69;100.00;101708.78;5074769;28;20303;-78
2022/04/10 07:26:37;;;;;;;;;;;;;;;8.90;100.00;101661.78;5073789;28;20011;-78
2022/04/10 07:29:03;;;;;;;;;;;;;;;9.62;100.00;101664.81;5072956;28;19977;-78
2022/04/10 07:31:28;;;;;;;;;;;;;;;10.30;100.00;101689.34;5052929;28;20368;-77
2022/04/10 07:33:53;;;;;;;;;;;;;;;10.55;100.00;101723.09;5066313;28;20023;-77
2022/04/10 07:36:20;;;;;;;;;;;;;;;10.58;100.00;101755.78;5073155;28;19924;-78
2022/04/10 07:38:45;;;;;;;;;;;;;;;10.65;100.00;101783.31;5071433;28;19920;-78
2022/04/10 07:41:10;;;;;;;;;;;;;;;10.21;100.00;101777.53;5051363;28;19921;-77
2022/04/10 07:43:36;;;;;;;;;;;;;;;10.71;100.00;101772.19;5052624;28;20019;-78
2022/04/10 07:48:45;;;;;;;;;;;;;;;12.15;100.00;102002.56;5060772;28;20057;-79
2022/04/10 07:51:11;;;;;;;;;;;;;;;12.33;100.00;102044.78;5074797;28;20077;-79
2022/04/10 07:53:36;;;;;;;;;;;;;;;12.50;100.00;102060.53;5091807;28;19916;-78
2022/04/10 07:56:02;;;;;;;;;;;;;;;12.80;100.00;102065.44;5092624;28;19922;-78
2022/04/10 07:58:27;;;;;;;;;;;;;;;13.02;100.00;102070.88;5075297;28;20364;-79
2022/04/10 08:00:53;;;;;;;;;;;;;;;12.96;100.00;102067.97;5091290;28;19968;-77
2022/04/10 08:03:18;;;;;;;;;;;;;;;12.01;100.00;102069.63;5074489;28;19924;-77
2022/04/10 08:05:45;;;;;;;;;;;;;;;12.36;100.00;102052.84;5092138;28;20370;-76
2022/04/10 08:08:10;;;;;;;;;;;;;;;11.70;100.00;102046.97;5091660;28;20419;-78
2022/04/10 08:10:37;;;;;;;;;;;;;;;12.24;100.00;102054.00;5093086;28;19966;-76
2022/04/10 08:13:06;;;;;;;;;;;;;;;12.94;100.00;102064.31;5091159;28;19978;-78
2022/04/10 08:15:36;;;;;;;;;;;;;;;12.82;100.00;102069.03;5093129;28;19916;-78
2022/04/10 08:18:03;;;;;;;;;;;;;;;12.02;100.00;102074.06;5092848;28;20267;-78
2022/04/10 08:20:30;;;;;;;;;;;;;;;12.00;100.00;102065.19;5093310;28;19955;-77
2022/04/10 08:23:02;;;;;;;;;;;;;;;12.07;100.00;102067.28;5092082;28;20338;-76
2022/04/10 08:25:28;;;;;;;;;;;;;;;12.24;100.00;102072.50;5092969;28;19999;-76
2022/04/10 08:27:54;;;;;;;;;;;;;;;12.55;100.00;102075.78;5093071;28;20344;-77
2022/04/10 08:30:19;;;;;;;;;;;;;;;11.70;100.00;102083.91;5091240;28;19916;-76
2022/04/10 08:32:45;;;;;;;;;;;;;;;11.66;100.00;102076.63;5091616;28;19920;-79
2022/04/10 08:35:11;;;;;;;;;;;;;;;11.96;100.00;102076.41;5090581;28;19923;-78
2022/04/10 08:37:42;;;;;;;;;;;;;;;11.84;100.00;102085.50;5092128;28;19927;-76
2022/04/10 08:40:08;;;;;;;;;;;;;;;12.86;100.00;102079.84;5091786;28;19916;-78
2022/04/10 08:42:33;;;;;;;;;;;;;;;12.11;100.00;102090.38;5091541;28;20002;-78
2022/04/10 08:44:59;;;;;;;;;;;;;;;12.52;100.00;102095.84;5091157;28;19920;-78
2022/04/10 08:47:25;;;;;;;;;;;;;;;13.01;100.00;102100.81;5092046;28;19947;-76
2022/04/10 08:49:51;;;;;;;;;;;;;;;13.11;100.00;102104.75;5090770;28;19919;-79
2022/04/10 08:52:17;;;;;;;;;;;;;;;13.13;100.00;102107.47;5094670;28;20026;-78
2022/04/10 08:54:45;;;;;;;;;;;;;;;13.48;100.00;102102.91;5096228;28;19935;-76
2022/04/10 08:57:11;;;;;;;;;;;;;;;12.89;100.00;102110.81;5097091;28;19966;-76
2022/04/10 08:59:36;;;;;;;;;;;;;;;12.16;100.00;102107.34;5095458;28;19912;-76
2022/04/10 09:02:02;;;;;;;;;;;;;;;11.94;100.00;102115.91;5096804;28;19952;-78
2022/04/10 09:04:29;;;;;;;;;;;;;;;11.55;100.00;102094.56;5095638;28;19927;-78
2022/04/10 09:07:03;;;;;;;;;;;;;;;11.93;100.00;102113.19;5095495;28;20402;-77
2022/04/10 09:09:31;;;;;;;;;;;;;;;11.94;100.00;102120.31;5096058;28;19920;-79
2022/04/10 09:11:57;;;;;;;;;;;;;;;11.97;100.00;102109.91;5095480;28;20366;-76
2022/04/10 09:14:25;;;;;;;;;;;;;;;11.98;100.00;102117.91;5095440;28;19916;-77
2022/04/10 09:17:09;;;;;;;;;;;;;;;11.61;100.00;102110.69;5095407;28;19916;-79
2022/04/10 09:19:40;;;;;;;;;;;;;;;11.67;100.00;102107.47;5095487;28;20019;-78
2022/04/10 09:22:24;;;;;;;;;;;;;;;12.10;100.00;102114.94;5095336;28;20382;-78
2022/04/10 09:25:08;;;;;;;;;;;;;;;11.78;100.00;102105.41;5095054;28;19942;-77
2022/04/10 09:27:38;;;;;;;;;;;;;;;12.00;100.00;102115.34;5095234;28;20002;-77
2022/04/10 09:30:05;;;;;;;;;;;;;;;11.30;100.00;102113.47;5094930;28;19916;-77
2022/04/10 09:32:36;;;;;;;;;;;;;;;10.86;100.00;102114.59;5078041;28;19926;-77
2022/04/10 09:35:03;;;;;;;;;;;;;;;10.79;100.00;102118.63;5094669;28;19916;-78
2022/04/10 09:37:30;;;;;;;;;;;;;;;11.32;100.00;102127.63;5094400;28;19917;-78
2022/04/10 09:40:15;;;;;;;;;;;;;;;11.27;100.00;102134.41;5093490;28;20010;-77
2022/04/10 09:42:42;;;;;;;;;;;;;;;10.65;100.00;102124.84;5093987;28;19916;-77
2022/04/10 09:45:29;;;;;;;;;;;;;;;10.50;100.00;102122.25;5095552;28;20440;-78
2022/04/10 09:47:54;;;;;;;;;;;;;;;10.97;100.00;102121.38;5093697;28;20583;-78
2022/04/10 09:50:28;;;;;;;;;;;;;;;10.86;100.00;102126.06;5077634;28;20022;-78
2022/04/10 09:52:55;;;;;;;;;;;;;;;10.96;100.00;102116.91;5095771;28;20356;-77
2022/04/10 09:55:34;;;;;;;;;;;;;;;11.41;100.00;102122.84;5094403;28;19951;-77
2022/04/10 09:58:00;;;;;;;;;;;;;;;11.89;100.00;102124.41;5095872;28;19916;-78
2022/04/10 10:00:26;;;;;;;;;;;;;;;11.85;100.00;102132.19;5095294;28;19965;-78
2022/04/10 10:02:53;;;;;;;;;;;;;;;11.66;100.00;102126.78;5092871;28;20395;-78
2022/04/10 10:05:19;;;;;;;;;;;;;;;11.73;100.00;102126.28;5094648;28;19928;-78
2022/04/10 10:07:48;;;;;;;;;;;;;;;11.68;100.00;102130.38;5094312;28;20010;-78
2022/04/10 10:10:16;;;;;;;;;;;;;;;11.43;100.00;102131.72;5092342;28;19985;-77
2022/04/10 10:12:42;;;;;;;;;;;;;;;10.72;100.00;102121.72;5094270;28;19923;-77
2022/04/10 10:15:10;;;;;;;;;;;;;;;10.48;100.00;102124.81;5094456;28;19916;-77
2022/04/10 10:17:36;;;;;;;;;;;;;;;10.27;100.00;102119.19;5094262;28;19926;-77
2022/04/10 10:20:01;;;;;;;;;;;;;;;10.33;100.00;102121.28;5093564;28;19916;-77
2022/04/10 10:22:27;;;;;;;;;;;;;;;11.10;100.00;102120.31;5093954;28;20314;-77
2022/04/10 10:24:58;;;;;;;;;;;;;;;11.71;100.00;102122.63;5093538;28;19917;-78
2022/04/10 10:27:34;;;;;;;;;;;;;;;12.26;100.00;102132.47;5094237;28;19916;-77
2022/04/10 10:30:01;;;;;;;;;;;;;;;12.02;100.00;102135.72;5093851;28;20369;-78
2022/04/10 10:32:38;;;;;;;;;;;;;;;11.74;100.00;102130.69;5094798;28;19927;-78
2022/04/10 10:35:04;;;;;;;;;;;;;;;11.54;100.00;102127.03;5076497;28;19988;-77
2022/04/10 10:37:45;;;;;;;;;;;;;;;11.30;100.00;102127.53;5094882;28;19969;-77
2022/04/10 10:40:17;;;;;;;;;;;;;;;11.39;100.00;102127.13;5093912;28;19924;-78
2022/04/10 10:42:44;;;;;;;;;;;;;;;11.38;100.00;102133.22;5075944;28;19920;-78
2022/04/10 10:45:25;;;;;;;;;;;;;;;11.29;100.00;102138.91;5092420;28;20570;-77
2022/04/10 10:48:01;;;;;;;;;;;;;;;11.18;100.00;102136.53;5093114;28;19916;-78
2022/04/10 10:50:27;;;;;;;;;;;;;;;11.20;100.00;102126.97;5094386;28;20064;-78
2022/04/10 10:53:06;;;;;;;;;;;;;;;11.75;100.00;102140.44;5092830;28;19920;-78
2022/04/10 10:55:45;;;;;;;;;;;;;;;11.73;100.00;102135.91;5093682;28;19920;-75
2022/04/10 10:58:14;;;;;;;;;;;;;;;11.82;100.00;102134.66;5093299;28;19920;-78
2022/04/10 11:00:39;;;;;;;;;;;;;;;12.28;100.00;102140.47;5093359;28;19992;-77
2022/04/10 11:03:09;;;;;;;;;;;;;;;12.15;100.00;102131.03;5076138;28;19978;-77
2022/04/10 11:05:39;;;;;;;;;;;;;;;11.99;100.00;102125.00;5093593;28;20012;-77
2022/04/10 11:08:09;;;;;;;;;;;;;;;11.86;100.00;102123.41;5093242;28;20061;-78
2022/04/10 11:10:38;;;;;;;;;;;;;;;11.85;100.00;102132.19;5092857;28;19923;-78
2022/04/10 11:13:10;;;;;;;;;;;;;;;11.45;100.00;102130.09;5092602;28;19945;-78
2022/04/10 11:15:47;;;;;;;;;;;;;;;11.78;100.00;102118.59;5092916;28;19920;-78
2022/04/10 11:18:27;;;;;;;;;;;;;;;11.55;100.00;102112.13;5092530;28;20365;-79
2022/04/10 11:20:57;;;;;;;;;;;;;;;11.19;100.00;102110.25;5092828;28;20010;-77
2022/04/10 11:23:31;;;;;;;;;;;;;;;11.38;100.00;102113.88;5093212;28;20270;-78
2022/04/10 11:26:02;;;;;;;;;;;;;;;10.84;100.00;102109.22;5093392;28;19920;-78
2022/04/10 11:28:52;;;;;;;;;;;;;;;10.94;100.00;102106.28;5092833;28;19927;-77
2022/04/10 11:31:34;;;;;;;;;;;;;;;10.93;100.00;102106.22;5093010;28;19916;-77
2022/04/10 11:34:10;;;;;;;;;;;;;;;11.17;100.00;102105.72;5092823;28;19923;-77
2022/04/10 11:37:06;;;;;;;;;;;;;;;11.06;100.00;102102.50;5093091;28;19916;-78
2022/04/10 11:39:37;;;;;;;;;;;;;;;11.33;100.00;102095.16;5088482;28;19916;-78
2022/04/10 11:42:11;;;;;;;;;;;;;;;11.27;100.00;102106.28;5091896;28;19916;-78
2022/04/10 11:44:38;;;;;;;;;;;;;;;11.53;100.00;102092.66;5093612;28;19943;-77
2022/04/10 11:47:10;;;;;;;;;;;;;;;11.65;100.00;102093.28;5092869;28;19923;-77
2022/04/10 11:49:36;;;;;;;;;;;;;;;11.11;100.00;102091.38;5091586;28;19923;-77
2022/04/10 11:52:02;;;;;;;;;;;;;;;10.73;100.00;102092.81;5090477;28;19924;-77
2022/04/10 11:54:35;;;;;;;;;;;;;;;10.60;100.00;102093.00;5090481;28;20015;-77
2022/04/10 11:57:04;;;;;;;;;;;;;;;11.20;100.00;102095.31;5073939;28;20375;-78
2022/04/10 11:59:34;;;;;;;;;;;;;;;11.41;100.00;102096.47;5091032;28;19920;-78
2022/04/10 12:02:01;;;;;;;;;;;;;;;11.59;100.00;102098.25;5090488;28;19916;-78
2022/04/10 12:04:28;;;;;;;;;;;;;;;11.28;100.00;102089.66;5074289;28;19924;-78
2022/04/10 12:07:08;;;;;;;;;;;;;;;11.25;100.00;102080.69;5091204;28;19916;-78
2022/04/10 12:09:34;;;;;;;;;;;;;;;11.20;100.00;102083.06;5073820;28;19931;-77
2022/04/10 12:11:59;;;;;;;;;;;;;;;11.10;100.00;102081.66;5091685;28;19912;-77
2022/04/10 12:14:29;;;;;;;;;;;;;;;11.01;100.00;102083.78;5090490;28;20356;-78
2022/04/10 12:16:58;;;;;;;;;;;;;;;10.99;100.00;102085.47;5090291;28;19916;-78
2022/04/10 12:19:31;;;;;;;;;;;;;;;10.67;100.00;102075.78;5091106;28;19999;-77
2022/04/10 12:21:56;;;;;;;;;;;;;;;10.49;100.00;102071.31;5090452;28;20376;-78
2022/04/10 12:24:21;;;;;;;;;;;;;;;10.58;100.00;102070.91;5089314;28;19916;-78
2022/04/10 12:26:53;;;;;;;;;;;;;;;10.88;100.00;102068.16;5090311;28;19923;-77
2022/04/10 12:29:18;;;;;;;;;;;;;;;10.87;100.00;102077.78;5090862;28;20402;-78
2022/04/10 12:31:45;;;;;;;;;;;;;;;10.99;100.00;102074.91;5091712;28;19923;-77
2022/04/10 12:34:13;;;;;;;;;;;;;;;11.04;100.00;102080.44;5090626;28;20006;-77
2022/04/10 12:36:52;;;;;;;;;;;;;;;10.96;100.00;102082.66;5090750;28;20027;-77